Time;durP1;ratioP1;P1;durP2;ratioP2;P2;SDS_P1;SDS_P2;PMS_P1;PMS_P2;Temp;Humidity;BMP_temperature;BMP_pressure;BME280_temperature;BME280_humidity;BME280_pressure;Samples;Min_cycle;Max_cycle;Signal;HPM_P1;HPM_P2
2021/08/13 00:03:53;;;;;;;6.93;4.72;;;;;;;;;;10443614;27;20074;-59
2021/08/13 00:08:51;;;;;;;8.00;4.97;;;;;;;;;;10443296;27;20075;-59
2021/08/13 00:13:50;;;;;;;7.95;5.22;;;;;;;;;;10443146;27;20054;-59
2021/08/13 00:18:50;;;;;;;6.15;5.03;;;;;;;;;;10441676;27;20055;-59
2021/08/13 00:23:48;;;;;;;7.00;5.13;;;;;;;;;;10442699;27;20051;-59
2021/08/13 00:28:46;;;;;;;11.05;5.38;;;;;;;;;;10443365;27;20046;-59
2021/08/13 00:33:46;;;;;;;5.80;4.65;;;;;;;;;;10423755;27;20043;-59
2021/08/13 00:38:45;;;;;;;6.20;4.47;;;;;;;;;;10424436;27;20058;-58
2021/08/13 00:43:44;;;;;;;7.65;4.60;;;;;;;;;;10423787;27;20051;-59
2021/08/13 00:48:43;;;;;;;6.53;4.53;;;;;;;;;;10441981;27;20043;-59
2021/08/13 00:54:03;;;;;;;8.20;5.13;;;;;;;;;;10423447;27;20435;-59
2021/08/13 00:59:09;;;;;;;7.03;4.53;;;;;;;;;;10423071;27;20058;-57
2021/08/13 01:04:31;;;;;;;4.53;4.00;;;;;;;;;;10422261;27;20047;-60
2021/08/13 01:09:33;;;;;;;5.03;4.43;;;;;;;;;;10422578;27;20054;-59
2021/08/13 01:14:36;;;;;;;9.60;3.95;;;;;;;;;;10440880;27;20083;-59
2021/08/13 01:19:49;;;;;;;5.05;4.38;;;;;;;;;;10420947;27;20058;-59
2021/08/13 01:24:52;;;;;;;5.00;4.43;;;;;;;;;;10422245;27;20058;-60
2021/08/13 01:29:53;;;;;;;11.00;5.78;;;;;;;;;;10421742;28;20078;-59
2021/08/13 01:34:56;;;;;;;8.73;5.50;;;;;;;;;;10421965;28;20419;-59
2021/08/13 01:39:58;;;;;;;6.55;5.72;;;;;;;;;;10422386;28;20462;-59
2021/08/13 01:44:59;;;;;;;9.00;6.00;;;;;;;;;;10421611;28;20416;-59
2021/08/13 01:50:01;;;;;;;9.82;6.40;;;;;;;;;;10421867;28;20058;-60
2021/08/13 01:55:01;;;;;;;7.05;5.22;;;;;;;;;;10421521;28;20047;-60
2021/08/13 02:00:04;;;;;;;9.40;6.72;;;;;;;;;;10421450;28;20051;-60
2021/08/13 02:05:17;;;;;;;8.50;6.53;;;;;;;;;;10443770;27;20051;-60
2021/08/13 02:10:16;;;;;;;10.00;6.75;;;;;;;;;;10421689;28;20054;-60
2021/08/13 02:15:15;;;;;;;10.40;6.55;;;;;;;;;;10421105;28;20047;-58
2021/08/13 02:20:17;;;;;;;13.70;6.95;;;;;;;;;;10427404;27;20055;-60
2021/08/13 02:25:18;;;;;;;;;;;;;;;;;;10429237;27;20522;-60
2021/08/13 02:30:17;;;;;;;11.95;6.95;;;;;;;;;;10428840;27;19919;-60
2021/08/13 02:35:20;;;;;;;9.65;6.70;;;;;;;;;;10428477;27;20436;-60
2021/08/13 02:40:20;;;;;;;15.77;7.50;;;;;;;;;;10428331;27;20135;-60
2021/08/13 02:45:22;;;;;;;10.50;7.60;;;;;;;;;;10428470;27;20051;-59
2021/08/13 02:50:27;;;;;;;10.18;8.20;;;;;;;;;;10428284;27;20047;-59
2021/08/13 02:55:32;;;;;;;11.18;7.45;;;;;;;;;;10432068;27;20051;-58
2021/08/13 03:00:32;;;;;;;13.63;10.45;;;;;;;;;;10428228;27;20046;-57
2021/08/13 03:05:32;;;;;;;10.25;9.10;;;;;;;;;;10462293;27;20439;-60
2021/08/13 03:10:38;;;;;;;9.13;7.95;;;;;;;;;;10445138;27;20059;-59
2021/08/13 03:15:36;;;;;;;13.65;11.07;;;;;;;;;;10444087;27;20044;-59
2021/08/13 03:20:38;;;;;;;12.10;9.15;;;;;;;;;;10445368;27;20079;-60
2021/08/13 03:25:39;;;;;;;13.13;10.93;;;;;;;;;;10446072;27;20055;-60
2021/08/13 03:30:45;;;;;;;14.57;12.85;;;;;;;;;;10447591;27;20070;-59
2021/08/13 03:35:51;;;;;;;18.98;9.95;;;;;;;;;;10439151;27;20496;-60
2021/08/13 03:40:49;;;;;;;15.93;8.52;;;;;;;;;;10438405;27;20046;-61
2021/08/13 03:45:51;;;;;;;11.10;7.57;;;;;;;;;;10455047;27;20070;-59
2021/08/13 03:50:50;;;;;;;16.17;10.07;;;;;;;;;;10482301;27;20128;-60
2021/08/13 03:55:50;;;;;;;13.10;10.90;;;;;;;;;;10466802;27;20058;-60
2021/08/13 04:00:49;;;;;;;16.27;10.02;;;;;;;;;;10465798;27;20070;-61
2021/08/13 04:05:47;;;;;;;8.52;7.63;;;;;;;;;;10459150;27;20100;-60
2021/08/13 04:10:48;;;;;;;9.98;7.10;;;;;;;;;;10458591;27;20077;-59
2021/08/13 04:15:46;;;;;;;9.15;6.53;;;;;;;;;;10458486;27;20085;-60
2021/08/13 04:20:45;;;;;;;11.07;8.02;;;;;;;;;;10465589;27;20495;-59
2021/08/13 04:25:47;;;;;;;9.65;6.75;;;;;;;;;;10465450;27;20066;-58
2021/08/13 04:30:46;;;;;;;21.33;19.13;;;;;;;;;;10485515;27;20046;-58
2021/08/13 04:35:45;;;;;;;15.32;8.85;;;;;;;;;;10465590;27;20506;-58
2021/08/13 04:40:44;;;;;;;12.60;6.55;;;;;;;;;;10464628;27;20050;-60
2021/08/13 04:45:45;;;;;;;8.82;7.30;;;;;;;;;;10465105;27;20051;-59
2021/08/13 04:50:43;;;;;;;9.10;6.55;;;;;;;;;;10461017;27;20077;-60
2021/08/13 04:55:42;;;;;;;11.57;6.43;;;;;;;;;;10460779;27;20112;-60
2021/08/13 05:00:40;;;;;;;10.70;6.35;;;;;;;;;;10460403;27;20074;-60
2021/08/13 05:05:44;;;;;;;8.02;6.00;;;;;;;;;;10463858;27;20522;-60
2021/08/13 05:10:43;;;;;;;9.43;6.53;;;;;;;;;;10464358;27;20035;-59
2021/08/13 05:15:43;;;;;;;6.53;5.82;;;;;;;;;;10463829;27;20510;-59
2021/08/13 05:20:44;;;;;;;10.85;6.88;;;;;;;;;;10463668;27;20058;-60
2021/08/13 05:25:43;;;;;;;9.18;6.07;;;;;;;;;;10463995;27;20042;-60
2021/08/13 05:30:42;;;;;;;14.32;6.70;;;;;;;;;;10463834;27;20038;-60
2021/08/13 05:35:40;;;;;;;8.25;6.28;;;;;;;;;;10464338;27;20055;-60
2021/08/13 05:40:41;;;;;;;8.27;6.35;;;;;;;;;;10463945;27;20039;-60
2021/08/13 05:45:41;;;;;;;9.52;5.75;;;;;;;;;;10463350;27;20039;-60
2021/08/13 05:50:40;;;;;;;8.98;5.85;;;;;;;;;;10464456;27;20065;-60
2021/08/13 05:55:43;;;;;;;10.18;6.07;;;;;;;;;;10472064;27;20507;-60
2021/08/13 06:00:43;;;;;;;6.45;5.07;;;;;;;;;;10471671;27;20066;-60
2021/08/13 06:05:41;;;;;;;5.85;5.28;;;;;;;;;;10491179;27;20407;-60
2021/08/13 06:10:43;;;;;;;9.10;5.28;;;;;;;;;;10471213;27;20053;-60
2021/08/13 06:15:43;;;;;;;8.65;6.05;;;;;;;;;;10471145;27;20054;-60
2021/08/13 06:20:41;;;;;;;6.40;5.60;;;;;;;;;;10489418;27;20423;-59
2021/08/13 06:25:58;;;;;;;10.70;6.57;;;;;;;;;;10471184;27;20051;-60
2021/08/13 06:30:57;;;;;;;8.30;6.55;;;;;;;;;;10470345;27;20047;-60
2021/08/13 06:35:55;;;;;;;9.43;6.30;;;;;;;;;;10489547;27;20070;-60
2021/08/13 06:40:54;;;;;;;10.88;7.63;;;;;;;;;;10488774;27;20081;-60
2021/08/13 06:45:56;;;;;;;13.77;7.20;;;;;;;;;;10470013;27;20050;-60
2021/08/13 06:50:59;;;;;;;;;;;;;;;;;;10470798;27;20522;-60
2021/08/13 06:56:00;;;;;;;8.32;5.72;;;;;;;;;;10469042;27;19977;-60
2021/08/13 07:01:00;;;;;;;9.57;6.43;;;;;;;;;;10469462;27;20050;-59
2021/08/13 07:05:59;;;;;;;9.50;7.20;;;;;;;;;;10468013;27;20418;-61
2021/08/13 07:10:58;;;;;;;8.65;6.28;;;;;;;;;;10468671;27;20039;-60
2021/08/13 07:15:56;;;;;;;6.63;5.53;;;;;;;;;;10468873;27;20070;-60
2021/08/13 07:20:57;;;;;;;7.93;5.75;;;;;;;;;;10469226;27;20046;-60
2021/08/13 07:25:55;;;;;;;14.45;5.30;;;;;;;;;;10469158;27;20043;-60
2021/08/13 07:30:54;;;;;;;8.70;4.35;;;;;;;;;;10468429;27;20047;-60
2021/08/13 07:35:59;;;;;;;7.88;4.15;;;;;;;;;;10468246;27;20051;-60
2021/08/13 07:40:58;;;;;;;6.80;3.47;;;;;;;;;;10467572;27;20486;-61
2021/08/13 07:45:56;;;;;;;8.93;8.05;;;;;;;;;;10467314;27;20050;-61
2021/08/13 07:50:55;;;;;;;7.72;3.92;;;;;;;;;;10467549;27;20042;-60
2021/08/13 07:55:54;;;;;;;4.10;3.65;;;;;;;;;;10466764;27;20062;-61
2021/08/13 08:00:56;;;;;;;13.88;4.13;;;;;;;;;;10466881;27;20047;-61
2021/08/13 08:05:54;;;;;;;7.40;4.18;;;;;;;;;;10486991;27;20639;-61
2021/08/13 08:10:52;;;;;;;8.43;3.83;;;;;;;;;;10486028;27;20385;-60
2021/08/13 08:15:52;;;;;;;12.32;3.60;;;;;;;;;;10485939;27;20093;-61
2021/08/13 08:20:50;;;;;;;3.30;3.00;;;;;;;;;;10485085;27;20062;-60
2021/08/13 08:25:51;;;;;;;8.68;5.03;;;;;;;;;;10485734;27;20105;-62
2021/08/13 08:30:49;;;;;;;6.00;3.78;;;;;;;;;;10485982;27;20510;-61
2021/08/13 08:35:49;;;;;;;7.55;4.88;;;;;;;;;;10485378;27;20054;-62
2021/08/13 08:40:48;;;;;;;4.63;3.78;;;;;;;;;;10484295;27;20042;-61
2021/08/13 08:45:46;;;;;;;4.68;3.63;;;;;;;;;;10485424;27;20416;-59
2021/08/13 08:50:45;;;;;;;4.55;3.35;;;;;;;;;;10485323;27;20058;-60
2021/08/13 08:55:45;;;;;;;5.88;3.20;;;;;;;;;;10483600;27;20533;-59
2021/08/13 09:00:44;;;;;;;10.98;3.60;;;;;;;;;;10484869;27;20042;-60
2021/08/13 09:05:44;;;;;;;5.95;4.15;;;;;;;;;;10484229;27;20046;-61
2021/08/13 09:10:42;;;;;;;6.15;3.55;;;;;;;;;;10483732;27;20050;-60
2021/08/13 09:15:43;;;;;;;8.88;4.22;;;;;;;;;;10483651;27;20054;-59
2021/08/13 09:20:42;;;;;;;4.30;3.42;;;;;;;;;;10482652;27;20050;-60
2021/08/13 09:25:41;;;;;;;4.90;3.53;;;;;;;;;;10483640;27;20066;-61
2021/08/13 09:31:10;;;;;;;5.82;3.70;;;;;;;;;;10485011;27;20062;-61
2021/08/13 09:36:08;;;;;;;8.55;4.20;;;;;;;;;;10482675;27;20475;-61
2021/08/13 09:41:08;;;;;;;6.47;4.78;;;;;;;;;;10481196;27;20042;-61
2021/08/13 09:46:07;;;;;;;8.55;4.00;;;;;;;;;;10481432;27;20427;-61
2021/08/13 09:51:27;;;;;;;7.72;4.07;;;;;;;;;;10463752;27;20042;-60
2021/08/13 09:56:26;;;;;;;5.85;4.35;;;;;;;;;;10461758;27;20043;-61
2021/08/13 10:01:35;;;;;;;4.22;3.80;;;;;;;;;;10475556;27;20549;-61
2021/08/13 10:06:35;;;;;;;5.30;3.40;;;;;;;;;;10481518;27;20081;-60
2021/08/13 10:11:35;;;;;;;3.60;3.30;;;;;;;;;;10480869;27;20503;-59
2021/08/13 10:16:35;;;;;;;6.55;3.35;;;;;;;;;;10462202;27;20058;-60
2021/08/13 10:21:44;;;;;;;11.00;3.53;;;;;;;;;;10462424;27;20050;-60
2021/08/13 10:26:42;;;;;;;4.28;3.88;;;;;;;;;;10461898;27;20051;-61
2021/08/13 10:31:41;;;;;;;4.55;3.50;;;;;;;;;;10463110;27;20408;-61
2021/08/13 10:36:44;;;;;;;5.43;3.22;;;;;;;;;;10461961;27;20051;-60
2021/08/13 10:41:45;;;;;;;7.30;5.43;;;;;;;;;;10487967;27;20046;-59
2021/08/13 10:46:45;;;;;;;5.28;4.18;;;;;;;;;;10469577;27;20050;-60
2021/08/13 10:51:43;;;;;;;4.47;3.72;;;;;;;;;;10469873;27;20046;-60
2021/08/13 10:56:44;;;;;;;4.15;3.75;;;;;;;;;;10469308;27;20049;-61
2021/08/13 11:02:04;;;;;;;5.20;4.00;;;;;;;;;;10469324;27;20046;-60
2021/08/13 11:07:02;;;;;;;6.05;3.65;;;;;;;;;;10469666;27;20038;-59
2021/08/13 11:12:12;;;;;;;4.95;3.65;;;;;;;;;;10487746;27;20050;-60
2021/08/13 11:17:28;;;;;;;7.20;4.38;;;;;;;;;;10468778;27;20070;-60
2021/08/13 11:22:27;;;;;;;6.47;4.00;;;;;;;;;;10488621;27;20070;-60
2021/08/13 11:27:28;;;;;;;4.53;3.70;;;;;;;;;;10468017;27;20055;-60
2021/08/13 11:32:28;;;;;;;3.90;3.47;;;;;;;;;;10487225;27;20053;-60
2021/08/13 11:37:48;;;;;;;8.07;4.25;;;;;;;;;;10467400;27;20043;-61
2021/08/13 11:42:53;;;;;;;4.25;3.50;;;;;;;;;;10467145;27;20050;-60
2021/08/13 11:47:55;;;;;;;3.47;3.17;;;;;;;;;;10467786;27;20043;-61
2021/08/13 11:52:53;;;;;;;3.88;3.30;;;;;;;;;;10468283;27;20038;-61
2021/08/13 11:57:54;;;;;;;5.78;4.05;;;;;;;;;;10485395;27;20093;-61
2021/08/13 12:02:56;;;;;;;4.30;3.90;;;;;;;;;;10467435;27;20043;-60
2021/08/13 12:07:58;;;;;;;3.97;3.58;;;;;;;;;;10467105;27;20065;-60
2021/08/13 12:12:58;;;;;;;4.30;3.58;;;;;;;;;;10466938;27;20054;-61
2021/08/13 12:17:56;;;;;;;6.55;3.28;;;;;;;;;;10466463;27;20054;-61
2021/08/13 12:23:04;;;;;;;4.32;3.42;;;;;;;;;;10485132;27;20475;-61
2021/08/13 12:28:06;;;;;;;8.48;4.93;;;;;;;;;;10466099;27;20054;-62
2021/08/13 12:33:05;;;;;;;4.65;3.90;;;;;;;;;;10466288;27;20042;-61
2021/08/13 12:38:04;;;;;;;6.82;3.53;;;;;;;;;;10465195;27;20042;-60
2021/08/13 12:43:02;;;;;;;6.35;3.67;;;;;;;;;;10484500;27;20046;-61
2021/08/13 12:48:21;;;;;;;8.20;4.70;;;;;;;;;;10465496;27;20043;-61
2021/08/13 12:53:31;;;;;;;9.15;4.47;;;;;;;;;;10484001;27;20038;-61
2021/08/13 12:58:31;;;;;;;5.85;4.55;;;;;;;;;;10465232;27;20047;-61
2021/08/13 13:03:33;;;;;;;7.45;3.97;;;;;;;;;;10464021;27;20047;-62
2021/08/13 13:08:41;;;;;;;5.65;3.50;;;;;;;;;;10463819;27;20047;-61
2021/08/13 13:13:46;;;;;;;5.03;3.72;;;;;;;;;;10464876;27;20402;-61
2021/08/13 13:18:46;;;;;;;5.75;4.20;;;;;;;;;;10482961;27;20085;-60
2021/08/13 13:23:45;;;;;;;10.48;4.50;;;;;;;;;;10463337;27;20042;-60
2021/08/13 13:29:13;;;;;;;4.25;3.80;;;;;;;;;;10461550;27;20054;-60
2021/08/13 13:34:23;;;;;;;5.85;4.70;;;;;;;;;;10464239;27;20058;-61
2021/08/13 13:39:21;;;;;;;6.15;3.50;;;;;;;;;;10488242;27;20047;-61
2021/08/13 13:44:23;;;;;;;6.25;4.07;;;;;;;;;;10463271;27;20046;-61
2021/08/13 13:49:27;;;;;;;12.13;5.63;;;;;;;;;;10463842;27;20053;-60
2021/08/13 13:54:26;;;;;;;5.38;4.75;;;;;;;;;;10463490;27;20472;-61
2021/08/13 13:59:24;;;;;;;15.25;6.78;;;;;;;;;;10463356;27;20051;-61
2021/08/13 14:04:23;;;;;;;5.60;4.65;;;;;;;;;;10481754;27;20043;-60
2021/08/13 14:09:23;;;;;;;12.02;7.60;;;;;;;;;;10482469;27;20042;-60
2021/08/13 14:14:21;;;;;;;8.93;7.43;;;;;;;;;;10467928;27;20042;-60
2021/08/13 14:19:20;;;;;;;8.25;5.63;;;;;;;;;;10470980;27;20061;-60
2021/08/13 14:24:18;;;;;;;11.90;4.68;;;;;;;;;;10457479;27;20081;-59
2021/08/13 14:29:18;;;;;;;8.20;5.70;;;;;;;;;;10448423;27;20075;-58
2021/08/13 14:34:17;;;;;;;10.23;6.22;;;;;;;;;;10443576;27;20067;-59
2021/08/13 14:39:16;;;;;;;7.10;6.45;;;;;;;;;;10446171;27;20070;-60
2021/08/13 14:44:15;;;;;;;14.02;6.80;;;;;;;;;;10488760;27;20039;-60
2021/08/13 14:49:15;;;;;;;7.57;5.57;;;;;;;;;;10469795;27;20039;-60
2021/08/13 14:54:13;;;;;;;9.88;7.95;;;;;;;;;;10469882;27;20502;-54
2021/08/13 14:59:12;;;;;;;10.52;7.47;;;;;;;;;;10475966;27;20073;-57
2021/08/13 15:04:11;;;;;;;9.15;6.60;;;;;;;;;;10487729;27;20049;-55
2021/08/13 15:09:11;;;;;;;8.82;7.25;;;;;;;;;;10464890;27;20043;-57
2021/08/13 15:14:11;;;;;;;10.07;7.40;;;;;;;;;;10438601;27;20050;-57
2021/08/13 15:19:10;;;;;;;7.10;6.40;;;;;;;;;;10462964;27;20078;-56
2021/08/13 15:24:09;;;;;;;5.90;5.32;;;;;;;;;;10466314;27;20051;-56
2021/08/13 15:29:08;;;;;;;6.35;5.00;;;;;;;;;;10477337;27;20035;-56
2021/08/13 15:34:07;;;;;;;8.00;5.50;;;;;;;;;;10461763;27;20062;-57
2021/08/13 15:39:06;;;;;;;7.75;5.40;;;;;;;;;;10480770;27;20081;-52
2021/08/13 15:44:05;;;;;;;5.85;5.00;;;;;;;;;;10481540;27;20088;-56
2021/08/13 15:49:07;;;;;;;7.10;6.40;;;;;;;;;;10484751;27;20384;-57
2021/08/13 15:54:06;;;;;;;6.97;5.45;;;;;;;;;;10486780;27;20050;-56
2021/08/13 15:59:05;;;;;;;6.43;4.45;;;;;;;;;;10485723;27;20066;-58
2021/08/13 16:04:03;;;;;;;10.07;5.45;;;;;;;;;;10485591;27;20043;-58
2021/08/13 16:09:03;;;;;;;13.27;4.72;;;;;;;;;;10485760;27;20497;-55
2021/08/13 16:14:01;;;;;;;5.97;4.60;;;;;;;;;;10485634;27;20053;-57
2021/08/13 16:19:00;;;;;;;8.20;5.93;;;;;;;;;;10485053;27;20085;-57
2021/08/13 16:23:58;;;;;;;9.93;6.60;;;;;;;;;;10484935;27;20396;-56
2021/08/13 16:28:58;;;;;;;7.88;6.88;;;;;;;;;;10484880;27;20042;-57
2021/08/13 16:33:56;;;;;;;7.70;6.18;;;;;;;;;;10485067;27;20049;-55
2021/08/13 16:38:54;;;;;;;9.48;7.30;;;;;;;;;;10483896;27;20096;-56
2021/08/13 16:43:53;;;;;;;14.30;4.93;;;;;;;;;;10484592;27;20331;-56
2021/08/13 16:48:52;;;;;;;6.28;4.90;;;;;;;;;;10485850;27;20034;-55
2021/08/13 16:53:51;;;;;;;11.60;4.57;;;;;;;;;;10484510;27;20039;-57
2021/08/13 16:58:49;;;;;;;10.40;5.07;;;;;;;;;;10483943;27;20077;-56
2021/08/13 17:03:47;;;;;;;7.97;4.10;;;;;;;;;;10483881;27;20058;-55
2021/08/13 17:08:47;;;;;;;5.43;4.60;;;;;;;;;;10483322;27;20570;-54
2021/08/13 17:13:45;;;;;;;6.63;4.60;;;;;;;;;;10482506;27;20051;-53
2021/08/13 17:18:43;;;;;;;6.60;4.78;;;;;;;;;;10482495;27;20506;-55
2021/08/13 17:23:42;;;;;;;9.75;6.88;;;;;;;;;;10483151;27;20050;-56
2021/08/13 17:28:41;;;;;;;8.95;5.00;;;;;;;;;;10482850;27;20043;-56
2021/08/13 17:33:40;;;;;;;8.68;5.68;;;;;;;;;;10483436;27;20046;-54
2021/08/13 17:38:38;;;;;;;6.68;5.65;;;;;;;;;;10482903;27;20067;-55
2021/08/13 17:43:36;;;;;;;9.15;4.50;;;;;;;;;;10482211;27;20038;-54
2021/08/13 17:48:36;;;;;;;12.85;4.72;;;;;;;;;;10486849;27;20043;-54
2021/08/13 17:53:34;;;;;;;7.07;4.70;;;;;;;;;;10491368;27;20050;-56
2021/08/13 17:58:32;;;;;;;5.13;4.18;;;;;;;;;;10471950;27;20047;-56
2021/08/13 18:03:32;;;;;;;6.22;4.93;;;;;;;;;;10490182;27;20043;-55
2021/08/13 18:08:31;;;;;;;8.13;4.82;;;;;;;;;;10490944;27;20502;-56
2021/08/13 18:13:30;;;;;;;9.30;5.18;;;;;;;;;;10489352;27;20050;-56
2021/08/13 18:18:28;;;;;;;9.45;4.57;;;;;;;;;;10489860;27;20078;-56
2021/08/13 18:23:26;;;;;;;5.28;4.40;;;;;;;;;;10490442;27;20053;-55
2021/08/13 18:28:26;;;;;;;6.22;4.70;;;;;;;;;;10489932;27;20047;-54
2021/08/13 18:33:24;;;;;;;8.55;4.43;;;;;;;;;;10489386;27;20039;-56
2021/08/13 18:38:22;;;;;;;5.20;4.70;;;;;;;;;;10489615;27;20070;-56
2021/08/13 18:43:21;;;;;;;10.98;4.13;;;;;;;;;;10487959;27;20042;-54
2021/08/13 18:48:21;;;;;;;5.78;4.07;;;;;;;;;;10488799;27;20035;-56
2021/08/13 18:53:20;;;;;;;6.60;3.85;;;;;;;;;;10488621;27;20047;-55
2021/08/13 18:58:18;;;;;;;5.18;4.07;;;;;;;;;;10486946;27;20081;-57
2021/08/13 19:03:20;;;;;;;9.68;4.57;;;;;;;;;;10488588;27;20427;-56
2021/08/13 19:08:20;;;;;;;6.85;4.50;;;;;;;;;;10488188;27;20089;-53
2021/08/13 19:13:18;;;;;;;4.40;3.78;;;;;;;;;;10486885;27;20038;-57
2021/08/13 19:18:16;;;;;;;6.75;4.60;;;;;;;;;;10486457;27;20083;-56
2021/08/13 19:23:15;;;;;;;5.93;4.05;;;;;;;;;;10486875;27;20178;-55
2021/08/13 19:28:14;;;;;;;4.57;3.60;;;;;;;;;;10487473;27;20035;-57
2021/08/13 19:33:13;;;;;;;6.90;3.97;;;;;;;;;;10487464;27;20035;-56
2021/08/13 19:38:11;;;;;;;5.75;4.05;;;;;;;;;;10486642;27;20541;-56
2021/08/13 19:43:09;;;;;;;9.32;4.28;;;;;;;;;;10486384;27;20039;-57
2021/08/13 19:48:09;;;;;;;12.52;4.25;;;;;;;;;;10486799;27;20031;-56
2021/08/13 19:53:07;;;;;;;5.20;3.50;;;;;;;;;;10486591;27;20043;-57
2021/08/13 19:58:05;;;;;;;6.72;4.03;;;;;;;;;;10486168;27;20039;-57
2021/08/13 20:03:04;;;;;;;9.30;4.63;;;;;;;;;;10486196;27;20043;-57
2021/08/13 20:08:05;;;;;;;6.47;4.07;;;;;;;;;;10486239;27;20038;-54
2021/08/13 20:13:03;;;;;;;6.80;3.95;;;;;;;;;;10485086;27;20050;-55
2021/08/13 20:18:01;;;;;;;8.35;3.78;;;;;;;;;;10485006;27;20355;-57
2021/08/13 20:22:59;;;;;;;7.43;4.07;;;;;;;;;;10485708;27;20039;-55
2021/08/13 20:27:59;;;;;;;6.22;4.18;;;;;;;;;;10484536;27;20034;-55
2021/08/13 20:32:57;;;;;;;9.88;4.60;;;;;;;;;;10484892;27;20049;-54
2021/08/13 20:37:55;;;;;;;4.93;4.07;;;;;;;;;;10484711;27;20074;-55
2021/08/13 20:42:54;;;;;;;12.18;4.25;;;;;;;;;;10478240;27;20038;-55
2021/08/13 20:47:53;;;;;;;7.45;4.15;;;;;;;;;;10461723;27;20081;-53
2021/08/13 20:52:52;;;;;;;6.60;4.55;;;;;;;;;;10461407;27;20074;-55
2021/08/13 20:57:51;;;;;;;6.65;4.53;;;;;;;;;;10456529;27;20522;-51
2021/08/13 21:02:49;;;;;;;5.53;4.38;;;;;;;;;;10456431;27;20043;-54
2021/08/13 21:07:49;;;;;;;7.78;4.47;;;;;;;;;;10444216;27;20499;-53
2021/08/13 21:12:48;;;;;;;7.20;4.30;;;;;;;;;;10448940;27;20058;-52
2021/08/13 21:17:47;;;;;;;5.72;3.95;;;;;;;;;;10440365;27;20097;-55
2021/08/13 21:22:45;;;;;;;7.30;3.85;;;;;;;;;;10440574;27;20043;-52
2021/08/13 21:27:45;;;;;;;6.00;3.92;;;;;;;;;;10440543;27;20047;-57
2021/08/13 21:32:43;;;;;;;6.00;4.03;;;;;;;;;;10440787;27;20065;-52
2021/08/13 21:37:41;;;;;;;6.75;4.18;;;;;;;;;;10451811;27;20074;-56
2021/08/13 21:42:39;;;;;;;7.85;4.28;;;;;;;;;;10440174;28;20499;-54
2021/08/13 21:47:39;;;;;;;6.00;4.07;;;;;;;;;;10440499;28;20518;-53
2021/08/13 21:52:37;;;;;;;5.32;3.83;;;;;;;;;;10440095;28;20051;-54
2021/08/13 21:57:35;;;;;;;11.90;4.70;;;;;;;;;;10462021;27;20050;-58
2021/08/13 22:02:34;;;;;;;6.45;4.13;;;;;;;;;;10467042;27;20071;-53
2021/08/13 22:07:34;;;;;;;5.43;4.40;;;;;;;;;;10440153;28;20343;-56
2021/08/13 22:12:32;;;;;;;5.75;4.15;;;;;;;;;;10439638;28;20053;-55
2021/08/13 22:17:31;;;;;;;8.00;4.55;;;;;;;;;;10439097;28;20424;-54
2021/08/13 22:22:29;;;;;;;5.15;3.92;;;;;;;;;;10439697;28;20459;-56
2021/08/13 22:27:29;;;;;;;4.75;4.18;;;;;;;;;;10439077;28;20511;-54
2021/08/13 22:32:27;;;;;;;4.65;3.75;;;;;;;;;;10440129;27;20050;-54
2021/08/13 22:37:25;;;;;;;7.60;4.30;;;;;;;;;;10447537;27;20047;-54
2021/08/13 22:42:24;;;;;;;5.07;3.30;;;;;;;;;;10446725;27;20184;-57
2021/08/13 22:47:24;;;;;;;3.90;3.50;;;;;;;;;;10446987;27;20047;-55
2021/08/13 22:52:22;;;;;;;4.55;3.88;;;;;;;;;;10446829;27;20039;-55
2021/08/13 22:57:20;;;;;;;8.48;4.15;;;;;;;;;;10446344;27;20093;-55
2021/08/13 23:02:19;;;;;;;7.45;3.90;;;;;;;;;;10446275;27;20074;-55
2021/08/13 23:07:21;;;;;;;4.45;3.60;;;;;;;;;;10445411;27;20047;-54
2021/08/13 23:12:19;;;;;;;6.78;4.22;;;;;;;;;;10445432;27;20062;-56
2021/08/13 23:17:18;;;;;;;6.30;3.42;;;;;;;;;;10445121;27;20527;-56
2021/08/13 23:22:16;;;;;;;5.97;3.83;;;;;;;;;;10445522;27;20082;-56
2021/08/13 23:27:18;;;;;;;6.65;3.97;;;;;;;;;;10445069;27;20038;-54
2021/08/13 23:32:16;;;;;;;5.88;3.78;;;;;;;;;;10445030;27;20050;-53
2021/08/13 23:37:15;;;;;;;5.35;3.40;;;;;;;;;;10444286;27;20043;-54
2021/08/13 23:42:13;;;;;;;4.75;3.40;;;;;;;;;;10444368;27;20098;-56
2021/08/13 23:47:13;;;;;;;4.70;3.88;;;;;;;;;;10443478;27;20054;-55
2021/08/13 23:52:11;;;;;;;4.00;3.60;;;;;;;;;;10444311;27;20051;-56
2021/08/13 23:57:10;;;;;;;3.65;3.22;;;;;;;;;;10443265;27;20075;-53
